sensor_id;sensor_type;location;lat;lon;timestamp;P1;durP1;ratioP1;P2;durP2;ratioP2
16294;SDS011;8255;49.560;8.244;2023-04-01T00:01:31;1.60;;;1.17;;
16294;SDS011;8255;49.560;8.244;2023-04-01T00:03:57;3.90;;;1.30;;
16294;SDS011;8255;49.560;8.244;2023-04-01T00:06:26;5.80;;;1.27;;
16294;SDS011;8255;49.560;8.244;2023-04-01T00:08:54;3.25;;;1.33;;
16294;SDS011;8255;49.560;8.244;2023-04-01T00:11:20;3.88;;;1.50;;
16294;SDS011;8255;49.560;8.244;2023-04-01T00:13:47;2.47;;;1.50;;
16294;SDS011;8255;49.560;8.244;2023-04-01T00:16:14;1.25;;;1.13;;
16294;SDS011;8255;49.560;8.244;2023-04-01T00:18:40;5.97;;;1.50;;
16294;SDS011;8255;49.560;8.244;2023-04-01T00:21:06;2.72;;;1.52;;
16294;SDS011;8255;49.560;8.244;2023-04-01T00:23:33;1.10;;;1.00;;
16294;SDS011;8255;49.560;8.244;2023-04-01T00:26:01;1.30;;;1.20;;
16294;SDS011;8255;49.560;8.244;2023-04-01T00:28:28;2.22;;;1.15;;
16294;SDS011;8255;49.560;8.244;2023-04-01T00:30:58;1.90;;;1.05;;
16294;SDS011;8255;49.560;8.244;2023-04-01T00:33:24;2.65;;;1.10;;
16294;SDS011;8255;49.560;8.244;2023-04-01T00:35:52;3.17;;;1.40;;
16294;SDS011;8255;49.560;8.244;2023-04-01T00:38:19;1.50;;;0.98;;
16294;SDS011;8255;49.560;8.244;2023-04-01T00:40:45;3.28;;;1.08;;
16294;SDS011;8255;49.560;8.244;2023-04-01T00:43:14;2.55;;;1.40;;
16294;SDS011;8255;49.560;8.244;2023-04-01T00:45:43;1.38;;;1.13;;
16294;SDS011;8255;49.560;8.244;2023-04-01T00:48:10;2.25;;;1.10;;
16294;SDS011;8255;49.560;8.244;2023-04-01T00:50:36;1.08;;;0.98;;
16294;SDS011;8255;49.560;8.244;2023-04-01T00:53:05;3.00;;;1.23;;
16294;SDS011;8255;49.560;8.244;2023-04-01T00:55:32;4.53;;;1.73;;
16294;SDS011;8255;49.560;8.244;2023-04-01T00:58:00;2.25;;;1.10;;
16294;SDS011;8255;49.560;8.244;2023-04-01T01:00:29;3.88;;;1.73;;
16294;SDS011;8255;49.560;8.244;2023-04-01T01:02:56;4.80;;;1.30;;
16294;SDS011;8255;49.560;8.244;2023-04-01T01:05:23;2.42;;;1.55;;
16294;SDS011;8255;49.560;8.244;2023-04-01T01:07:55;2.00;;;1.20;;
16294;SDS011;8255;49.560;8.244;2023-04-01T01:10:23;3.65;;;1.25;;
16294;SDS011;8255;49.560;8.244;2023-04-01T01:12:53;1.33;;;1.20;;
16294;SDS011;8255;49.560;8.244;2023-04-01T01:15:26;2.30;;;1.20;;
16294;SDS011;8255;49.560;8.244;2023-04-01T01:17:58;2.78;;;1.38;;
16294;SDS011;8255;49.560;8.244;2023-04-01T01:20:48;1.10;;;1.00;;
16294;SDS011;8255;49.560;8.244;2023-04-01T01:26:13;4.03;;;1.35;;
16294;SDS011;8255;49.560;8.244;2023-04-01T01:28:51;3.67;;;1.40;;
16294;SDS011;8255;49.560;8.244;2023-04-01T01:31:22;3.45;;;1.08;;
16294;SDS011;8255;49.560;8.244;2023-04-01T01:33:54;1.92;;;1.30;;
16294;SDS011;8255;49.560;8.244;2023-04-01T01:36:27;4.93;;;2.17;;
16294;SDS011;8255;49.560;8.244;2023-04-01T01:38:55;4.65;;;1.60;;
16294;SDS011;8255;49.560;8.244;2023-04-01T01:41:22;4.07;;;1.30;;
16294;SDS011;8255;49.560;8.244;2023-04-01T01:43:50;6.72;;;1.02;;
16294;SDS011;8255;49.560;8.244;2023-04-01T01:46:17;3.05;;;1.30;;
16294;SDS011;8255;49.560;8.244;2023-04-01T01:48:45;2.47;;;1.15;;
16294;SDS011;8255;49.560;8.244;2023-04-01T01:51:12;3.50;;;1.67;;
16294;SDS011;8255;49.560;8.244;2023-04-01T01:53:40;2.47;;;1.20;;
16294;SDS011;8255;49.560;8.244;2023-04-01T01:56:06;2.17;;;1.35;;
16294;SDS011;8255;49.560;8.244;2023-04-01T01:58:37;2.13;;;1.08;;
16294;SDS011;8255;49.560;8.244;2023-04-01T02:01:09;2.45;;;1.20;;
16294;SDS011;8255;49.560;8.244;2023-04-01T02:03:37;2.47;;;1.30;;
16294;SDS011;8255;49.560;8.244;2023-04-01T02:06:05;3.03;;;1.30;;
16294;SDS011;8255;49.560;8.244;2023-04-01T02:08:34;1.58;;;1.13;;
16294;SDS011;8255;49.560;8.244;2023-04-01T02:11:03;2.05;;;1.17;;
16294;SDS011;8255;49.560;8.244;2023-04-01T02:13:36;4.40;;;1.55;;
16294;SDS011;8255;49.560;8.244;2023-04-01T02:16:08;2.95;;;1.40;;
16294;SDS011;8255;49.560;8.244;2023-04-01T02:18:37;1.30;;;1.20;;
16294;SDS011;8255;49.560;8.244;2023-04-01T02:21:04;1.92;;;1.15;;
16294;SDS011;8255;49.560;8.244;2023-04-01T02:23:32;2.95;;;1.10;;
16294;SDS011;8255;49.560;8.244;2023-04-01T02:25:59;4.32;;;1.60;;
16294;SDS011;8255;49.560;8.244;2023-04-01T02:28:27;2.35;;;1.13;;
16294;SDS011;8255;49.560;8.244;2023-04-01T02:30:54;2.17;;;1.10;;
16294;SDS011;8255;49.560;8.244;2023-04-01T02:33:22;1.55;;;0.90;;
16294;SDS011;8255;49.560;8.244;2023-04-01T02:35:49;1.05;;;1.00;;
16294;SDS011;8255;49.560;8.244;2023-04-01T02:38:15;1.77;;;1.20;;
16294;SDS011;8255;49.560;8.244;2023-04-01T02:40:43;5.00;;;1.40;;
16294;SDS011;8255;49.560;8.244;2023-04-01T02:43:09;1.65;;;0.90;;
16294;SDS011;8255;49.560;8.244;2023-04-01T02:45:37;1.67;;;0.98;;
16294;SDS011;8255;49.560;8.244;2023-04-01T02:48:04;4.65;;;1.20;;
16294;SDS011;8255;49.560;8.244;2023-04-01T02:50:30;4.80;;;1.23;;
16294;SDS011;8255;49.560;8.244;2023-04-01T02:52:57;2.05;;;1.23;;
16294;SDS011;8255;49.560;8.244;2023-04-01T02:55:23;3.35;;;1.58;;
16294;SDS011;8255;49.560;8.244;2023-04-01T02:57:49;1.98;;;1.15;;
16294;SDS011;8255;49.560;8.244;2023-04-01T03:00:16;2.42;;;1.23;;
16294;SDS011;8255;49.560;8.244;2023-04-01T03:02:44;1.48;;;1.05;;
16294;SDS011;8255;49.560;8.244;2023-04-01T03:05:10;1.20;;;1.00;;
16294;SDS011;8255;49.560;8.244;2023-04-01T03:07:37;2.60;;;0.98;;
16294;SDS011;8255;49.560;8.244;2023-04-01T03:10:04;3.80;;;1.20;;
16294;SDS011;8255;49.560;8.244;2023-04-01T03:12:31;1.88;;;1.10;;
16294;SDS011;8255;49.560;8.244;2023-04-01T03:14:57;2.00;;;1.08;;
16294;SDS011;8255;49.560;8.244;2023-04-01T03:17:24;2.72;;;1.08;;
16294;SDS011;8255;49.560;8.244;2023-04-01T03:19:53;3.42;;;1.23;;
16294;SDS011;8255;49.560;8.244;2023-04-01T03:22:20;1.63;;;1.20;;
16294;SDS011;8255;49.560;8.244;2023-04-01T03:24:47;3.90;;;1.40;;
16294;SDS011;8255;49.560;8.244;2023-04-01T03:27:13;1.45;;;1.00;;
16294;SDS011;8255;49.560;8.244;2023-04-01T03:29:40;1.30;;;1.15;;
16294;SDS011;8255;49.560;8.244;2023-04-01T03:32:07;3.00;;;1.88;;
16294;SDS011;8255;49.560;8.244;2023-04-01T03:34:33;2.75;;;1.38;;
16294;SDS011;8255;49.560;8.244;2023-04-01T03:37:01;1.75;;;1.02;;
16294;SDS011;8255;49.560;8.244;2023-04-01T03:39:27;3.38;;;1.10;;
16294;SDS011;8255;49.560;8.244;2023-04-01T03:41:54;1.98;;;1.10;;
16294;SDS011;8255;49.560;8.244;2023-04-01T03:44:20;3.45;;;1.63;;
16294;SDS011;8255;49.560;8.244;2023-04-01T03:46:50;3.72;;;1.30;;
16294;SDS011;8255;49.560;8.244;2023-04-01T03:49:16;1.20;;;1.02;;
16294;SDS011;8255;49.560;8.244;2023-04-01T03:51:43;1.77;;;1.05;;
16294;SDS011;8255;49.560;8.244;2023-04-01T03:54:11;1.40;;;0.90;;
16294;SDS011;8255;49.560;8.244;2023-04-01T03:56:38;1.95;;;1.33;;
16294;SDS011;8255;49.560;8.244;2023-04-01T03:59:05;1.33;;;1.00;;
16294;SDS011;8255;49.560;8.244;2023-04-01T04:01:32;2.03;;;1.00;;
16294;SDS011;8255;49.560;8.244;2023-04-01T04:03:59;1.63;;;1.10;;
16294;SDS011;8255;49.560;8.244;2023-04-01T04:06:25;3.65;;;0.98;;
16294;SDS011;8255;49.560;8.244;2023-04-01T04:08:52;2.38;;;1.10;;
16294;SDS011;8255;49.560;8.244;2023-04-01T04:11:20;2.95;;;0.95;;
16294;SDS011;8255;49.560;8.244;2023-04-01T04:13:49;4.68;;;1.55;;
16294;SDS011;8255;49.560;8.244;2023-04-01T04:16:17;2.30;;;1.00;;
16294;SDS011;8255;49.560;8.244;2023-04-01T04:18:48;3.00;;;1.20;;
16294;SDS011;8255;49.560;8.244;2023-04-01T04:21:16;1.80;;;1.20;;
16294;SDS011;8255;49.560;8.244;2023-04-01T04:23:42;3.28;;;1.10;;
16294;SDS011;8255;49.560;8.244;2023-04-01T04:26:10;1.27;;;1.17;;
16294;SDS011;8255;49.560;8.244;2023-04-01T04:28:39;1.77;;;1.10;;
16294;SDS011;8255;49.560;8.244;2023-04-01T04:31:05;2.03;;;1.30;;
16294;SDS011;8255;49.560;8.244;2023-04-01T04:33:33;1.30;;;1.20;;
16294;SDS011;8255;49.560;8.244;2023-04-01T04:36:00;1.95;;;1.23;;
16294;SDS011;8255;49.560;8.244;2023-04-01T04:38:26;1.88;;;1.10;;
16294;SDS011;8255;49.560;8.244;2023-04-01T04:40:53;1.35;;;0.82;;
16294;SDS011;8255;49.560;8.244;2023-04-01T04:43:20;1.27;;;1.02;;
16294;SDS011;8255;49.560;8.244;2023-04-01T04:45:48;1.83;;;1.00;;
16294;SDS011;8255;49.560;8.244;2023-04-01T04:48:15;1.10;;;1.00;;
16294;SDS011;8255;49.560;8.244;2023-04-01T04:50:44;2.78;;;1.15;;
16294;SDS011;8255;49.560;8.244;2023-04-01T04:53:11;2.85;;;1.10;;
16294;SDS011;8255;49.560;8.244;2023-04-01T04:55:37;3.25;;;0.80;;
16294;SDS011;8255;49.560;8.244;2023-04-01T04:58:30;2.25;;;1.27;;
16294;SDS011;8255;49.560;8.244;2023-04-01T05:00:58;1.70;;;1.60;;
16294;SDS011;8255;49.560;8.244;2023-04-01T05:03:29;1.73;;;1.17;;
16294;SDS011;8255;49.560;8.244;2023-04-01T05:05:55;2.95;;;1.00;;
16294;SDS011;8255;49.560;8.244;2023-04-01T05:08:21;3.17;;;1.23;;
16294;SDS011;8255;49.560;8.244;2023-04-01T05:10:48;1.58;;;0.77;;
16294;SDS011;8255;49.560;8.244;2023-04-01T05:13:14;2.90;;;1.33;;
16294;SDS011;8255;49.560;8.244;2023-04-01T05:15:44;1.50;;;1.10;;
16294;SDS011;8255;49.560;8.244;2023-04-01T05:18:12;2.00;;;0.80;;
16294;SDS011;8255;49.560;8.244;2023-04-01T05:20:38;1.92;;;1.02;;
16294;SDS011;8255;49.560;8.244;2023-04-01T05:23:05;1.42;;;0.98;;
16294;SDS011;8255;49.560;8.244;2023-04-01T05:25:31;1.50;;;0.88;;
16294;SDS011;8255;49.560;8.244;2023-04-01T05:27:57;1.38;;;0.80;;
16294;SDS011;8255;49.560;8.244;2023-04-01T05:30:24;1.00;;;0.90;;
16294;SDS011;8255;49.560;8.244;2023-04-01T05:33:21;2.05;;;0.90;;
16294;SDS011;8255;49.560;8.244;2023-04-01T05:35:47;0.98;;;0.90;;
16294;SDS011;8255;49.560;8.244;2023-04-01T05:38:14;1.48;;;1.10;;
16294;SDS011;8255;49.560;8.244;2023-04-01T05:40:40;1.75;;;0.93;;
16294;SDS011;8255;49.560;8.244;2023-04-01T05:43:06;1.75;;;0.82;;
16294;SDS011;8255;49.560;8.244;2023-04-01T05:45:33;0.80;;;0.80;;
16294;SDS011;8255;49.560;8.244;2023-04-01T05:48:18;1.30;;;1.13;;
16294;SDS011;8255;49.560;8.244;2023-04-01T05:50:46;1.05;;;0.98;;
16294;SDS011;8255;49.560;8.244;2023-04-01T05:53:12;1.67;;;1.10;;
16294;SDS011;8255;49.560;8.244;2023-04-01T05:55:41;0.70;;;0.70;;
16294;SDS011;8255;49.560;8.244;2023-04-01T05:58:08;1.35;;;0.80;;
16294;SDS011;8255;49.560;8.244;2023-04-01T06:00:36;0.70;;;0.70;;
16294;SDS011;8255;49.560;8.244;2023-04-01T06:03:02;0.63;;;0.60;;
16294;SDS011;8255;49.560;8.244;2023-04-01T06:05:30;1.55;;;0.82;;
16294;SDS011;8255;49.560;8.244;2023-04-01T06:07:59;1.17;;;0.95;;
16294;SDS011;8255;49.560;8.244;2023-04-01T06:10:31;1.27;;;1.17;;
16294;SDS011;8255;49.560;8.244;2023-04-01T06:13:02;0.93;;;0.75;;
16294;SDS011;8255;49.560;8.244;2023-04-01T06:15:35;3.10;;;1.30;;
16294;SDS011;8255;49.560;8.244;2023-04-01T06:20:53;0.75;;;0.75;;
16294;SDS011;8255;49.560;8.244;2023-04-01T06:23:27;2.17;;;1.20;;
16294;SDS011;8255;49.560;8.244;2023-04-01T06:26:00;1.38;;;0.88;;
16294;SDS011;8255;49.560;8.244;2023-04-01T06:31:32;1.55;;;0.77;;
16294;SDS011;8255;49.560;8.244;2023-04-01T06:34:05;0.80;;;0.80;;
16294;SDS011;8255;49.560;8.244;2023-04-01T06:36:42;0.50;;;0.50;;
16294;SDS011;8255;49.560;8.244;2023-04-01T06:39:19;2.55;;;0.93;;
16294;SDS011;8255;49.560;8.244;2023-04-01T06:42:04;2.60;;;0.98;;
16294;SDS011;8255;49.560;8.244;2023-04-01T06:44:37;1.95;;;0.98;;
16294;SDS011;8255;49.560;8.244;2023-04-01T06:47:26;1.08;;;0.88;;
16294;SDS011;8255;49.560;8.244;2023-04-01T06:50:35;1.05;;;1.00;;
16294;SDS011;8255;49.560;8.244;2023-04-01T06:53:26;0.80;;;0.70;;
16294;SDS011;8255;49.560;8.244;2023-04-01T06:56:17;0.93;;;0.90;;
16294;SDS011;8255;49.560;8.244;2023-04-01T06:58:53;1.80;;;0.88;;
16294;SDS011;8255;49.560;8.244;2023-04-01T07:01:21;0.80;;;0.80;;
16294;SDS011;8255;49.560;8.244;2023-04-01T07:03:49;1.08;;;0.70;;
16294;SDS011;8255;49.560;8.244;2023-04-01T07:06:20;0.82;;;0.80;;
16294;SDS011;8255;49.560;8.244;2023-04-01T07:08:53;0.82;;;0.63;;
16294;SDS011;8255;49.560;8.244;2023-04-01T07:11:24;0.68;;;0.68;;
16294;SDS011;8255;49.560;8.244;2023-04-01T07:14:21;0.70;;;0.70;;
16294;SDS011;8255;49.560;8.244;2023-04-01T07:16:48;0.82;;;0.80;;
16294;SDS011;8255;49.560;8.244;2023-04-01T07:19:18;0.90;;;0.90;;
16294;SDS011;8255;49.560;8.244;2023-04-01T07:22:02;1.15;;;0.80;;
16294;SDS011;8255;49.560;8.244;2023-04-01T07:24:48;0.90;;;0.90;;
16294;SDS011;8255;49.560;8.244;2023-04-01T07:27:16;1.52;;;1.00;;
16294;SDS011;8255;49.560;8.244;2023-04-01T07:29:43;1.30;;;0.57;;
16294;SDS011;8255;49.560;8.244;2023-04-01T07:32:14;0.60;;;0.60;;
16294;SDS011;8255;49.560;8.244;2023-04-01T07:34:49;0.70;;;0.70;;
16294;SDS011;8255;49.560;8.244;2023-04-01T07:37:18;0.98;;;0.70;;
16294;SDS011;8255;49.560;8.244;2023-04-01T07:39:51;0.95;;;0.60;;
16294;SDS011;8255;49.560;8.244;2023-04-01T07:42:31;0.63;;;0.60;;
16294;SDS011;8255;49.560;8.244;2023-04-01T07:45:04;0.60;;;0.60;;
16294;SDS011;8255;49.560;8.244;2023-04-01T07:50:22;0.50;;;0.50;;
16294;SDS011;8255;49.560;8.244;2023-04-01T07:52:54;0.65;;;0.50;;
16294;SDS011;8255;49.560;8.244;2023-04-01T07:55:25;0.60;;;0.60;;
16294;SDS011;8255;49.560;8.244;2023-04-01T07:57:55;0.57;;;0.57;;
16294;SDS011;8255;49.560;8.244;2023-04-01T08:00:27;0.60;;;0.60;;
16294;SDS011;8255;49.560;8.244;2023-04-01T08:03:20;0.68;;;0.60;;
16294;SDS011;8255;49.560;8.244;2023-04-01T08:05:52;1.08;;;0.98;;
16294;SDS011;8255;49.560;8.244;2023-04-01T08:08:23;2.80;;;0.93;;
16294;SDS011;8255;49.560;8.244;2023-04-01T08:11:14;0.50;;;0.50;;
16294;SDS011;8255;49.560;8.244;2023-04-01T08:14:08;0.60;;;0.60;;
16294;SDS011;8255;49.560;8.244;2023-04-01T08:17:13;0.70;;;0.70;;
16294;SDS011;8255;49.560;8.244;2023-04-01T08:19:47;0.57;;;0.57;;
16294;SDS011;8255;49.560;8.244;2023-04-01T08:22:20;3.55;;;0.50;;
16294;SDS011;8255;49.560;8.244;2023-04-01T08:24:48;0.98;;;0.60;;
16294;SDS011;8255;49.560;8.244;2023-04-01T08:27:23;1.63;;;0.60;;
16294;SDS011;8255;49.560;8.244;2023-04-01T08:29:55;0.50;;;0.50;;
16294;SDS011;8255;49.560;8.244;2023-04-01T08:32:24;0.60;;;0.60;;
16294;SDS011;8255;49.560;8.244;2023-04-01T08:34:54;0.50;;;0.50;;
16294;SDS011;8255;49.560;8.244;2023-04-01T08:37:32;0.70;;;0.70;;
16294;SDS011;8255;49.560;8.244;2023-04-01T08:40:02;0.60;;;0.60;;
16294;SDS011;8255;49.560;8.244;2023-04-01T08:42:48;0.95;;;0.60;;
16294;SDS011;8255;49.560;8.244;2023-04-01T08:45:37;3.20;;;1.10;;
16294;SDS011;8255;49.560;8.244;2023-04-01T08:51:12;1.35;;;0.57;;
16294;SDS011;8255;49.560;8.244;2023-04-01T08:56:29;0.90;;;0.90;;
16294;SDS011;8255;49.560;8.244;2023-04-01T08:59:07;0.90;;;0.90;;
16294;SDS011;8255;49.560;8.244;2023-04-01T09:04:45;1.58;;;1.58;;
16294;SDS011;8255;49.560;8.244;2023-04-01T09:07:21;1.08;;;1.08;;
16294;SDS011;8255;49.560;8.244;2023-04-01T09:10:01;1.00;;;1.00;;
16294;SDS011;8255;49.560;8.244;2023-04-01T09:12:38;5.85;;;1.75;;
16294;SDS011;8255;49.560;8.244;2023-04-01T09:15:25;0.50;;;0.50;;
16294;SDS011;8255;49.560;8.244;2023-04-01T09:20:44;0.45;;;0.45;;
16294;SDS011;8255;49.560;8.244;2023-04-01T09:23:17;0.60;;;0.60;;
16294;SDS011;8255;49.560;8.244;2023-04-01T09:25:53;0.55;;;0.55;;
16294;SDS011;8255;49.560;8.244;2023-04-01T09:28:26;0.40;;;0.40;;
16294;SDS011;8255;49.560;8.244;2023-04-01T09:30:58;0.47;;;0.47;;
16294;SDS011;8255;49.560;8.244;2023-04-01T09:33:50;0.73;;;0.50;;
16294;SDS011;8255;49.560;8.244;2023-04-01T09:36:32;0.50;;;0.50;;
16294;SDS011;8255;49.560;8.244;2023-04-01T09:39:03;0.80;;;0.80;;
16294;SDS011;8255;49.560;8.244;2023-04-01T09:41:39;0.50;;;0.50;;
16294;SDS011;8255;49.560;8.244;2023-04-01T09:44:21;0.50;;;0.50;;
16294;SDS011;8255;49.560;8.244;2023-04-01T09:47:14;0.80;;;0.80;;
16294;SDS011;8255;49.560;8.244;2023-04-01T09:50:03;0.50;;;0.50;;
16294;SDS011;8255;49.560;8.244;2023-04-01T09:52:38;0.50;;;0.50;;
16294;SDS011;8255;49.560;8.244;2023-04-01T09:55:28;0.68;;;0.68;;
16294;SDS011;8255;49.560;8.244;2023-04-01T09:58:07;1.65;;;0.60;;
16294;SDS011;8255;49.560;8.244;2023-04-01T10:01:19;0.38;;;0.38;;
16294;SDS011;8255;49.560;8.244;2023-04-01T10:04:00;0.52;;;0.52;;
16294;SDS011;8255;49.560;8.244;2023-04-01T10:06:39;1.05;;;0.98;;
16294;SDS011;8255;49.560;8.244;2023-04-01T10:09:16;1.42;;;0.70;;
16294;SDS011;8255;49.560;8.244;2023-04-01T10:11:58;0.55;;;0.55;;
16294;SDS011;8255;49.560;8.244;2023-04-01T10:14:46;0.40;;;0.40;;
16294;SDS011;8255;49.560;8.244;2023-04-01T10:20:27;0.40;;;0.40;;
16294;SDS011;8255;49.560;8.244;2023-04-01T10:23:10;0.40;;;0.40;;
16294;SDS011;8255;49.560;8.244;2023-04-01T10:28:49;0.50;;;0.50;;
16294;SDS011;8255;49.560;8.244;2023-04-01T10:31:51;0.40;;;0.40;;
16294;SDS011;8255;49.560;8.244;2023-04-01T10:37:29;0.50;;;0.50;;
16294;SDS011;8255;49.560;8.244;2023-04-01T10:40:19;0.60;;;0.60;;
16294;SDS011;8255;49.560;8.244;2023-04-01T10:43:18;0.40;;;0.40;;
16294;SDS011;8255;49.560;8.244;2023-04-01T10:51:35;0.55;;;0.55;;
16294;SDS011;8255;49.560;8.244;2023-04-01T10:54:17;0.60;;;0.60;;
16294;SDS011;8255;49.560;8.244;2023-04-01T10:57:16;0.50;;;0.50;;
16294;SDS011;8255;49.560;8.244;2023-04-01T11:00:42;0.90;;;0.90;;
16294;SDS011;8255;49.560;8.244;2023-04-01T11:18:13;0.40;;;0.40;;
16294;SDS011;8255;49.560;8.244;2023-04-01T11:21:03;0.47;;;0.47;;
16294;SDS011;8255;49.560;8.244;2023-04-01T11:23:37;0.40;;;0.40;;
16294;SDS011;8255;49.560;8.244;2023-04-01T11:26:09;0.40;;;0.40;;
16294;SDS011;8255;49.560;8.244;2023-04-01T11:31:51;0.50;;;0.50;;
16294;SDS011;8255;49.560;8.244;2023-04-01T11:34:36;0.30;;;0.30;;
16294;SDS011;8255;49.560;8.244;2023-04-01T11:37:06;0.80;;;0.80;;
16294;SDS011;8255;49.560;8.244;2023-04-01T11:39:42;0.73;;;0.73;;
16294;SDS011;8255;49.560;8.244;2023-04-01T11:42:45;0.60;;;0.60;;
16294;SDS011;8255;49.560;8.244;2023-04-01T11:45:46;0.50;;;0.50;;
16294;SDS011;8255;49.560;8.244;2023-04-01T11:48:32;0.60;;;0.60;;
16294;SDS011;8255;49.560;8.244;2023-04-01T11:51:15;0.52;;;0.50;;
16294;SDS011;8255;49.560;8.244;2023-04-01T11:53:47;0.75;;;0.75;;
16294;SDS011;8255;49.560;8.244;2023-04-01T11:56:19;0.60;;;0.60;;
16294;SDS011;8255;49.560;8.244;2023-04-01T11:58:53;0.55;;;0.55;;
16294;SDS011;8255;49.560;8.244;2023-04-01T12:01:25;0.50;;;0.50;;
16294;SDS011;8255;49.560;8.244;2023-04-01T12:06:40;0.50;;;0.50;;
16294;SDS011;8255;49.560;8.244;2023-04-01T12:09:10;0.60;;;0.60;;
16294;SDS011;8255;49.560;8.244;2023-04-01T12:11:41;0.35;;;0.35;;
16294;SDS011;8255;49.560;8.244;2023-04-01T12:14:13;0.52;;;0.52;;
16294;SDS011;8255;49.560;8.244;2023-04-01T12:16:44;0.60;;;0.60;;
16294;SDS011;8255;49.560;8.244;2023-04-01T12:19:15;0.50;;;0.50;;
16294;SDS011;8255;49.560;8.244;2023-04-01T12:21:48;0.40;;;0.40;;
16294;SDS011;8255;49.560;8.244;2023-04-01T12:27:02;0.50;;;0.50;;
16294;SDS011;8255;49.560;8.244;2023-04-01T12:29:43;0.63;;;0.63;;
16294;SDS011;8255;49.560;8.244;2023-04-01T12:32:15;1.10;;;0.70;;
16294;SDS011;8255;49.560;8.244;2023-04-01T12:34:47;0.43;;;0.43;;
16294;SDS011;8255;49.560;8.244;2023-04-01T12:37:18;0.50;;;0.50;;
16294;SDS011;8255;49.560;8.244;2023-04-01T12:40:02;0.50;;;0.50;;
16294;SDS011;8255;49.560;8.244;2023-04-01T12:42:38;0.50;;;0.50;;
16294;SDS011;8255;49.560;8.244;2023-04-01T12:45:15;0.50;;;0.50;;
16294;SDS011;8255;49.560;8.244;2023-04-01T12:47:48;0.43;;;0.43;;
16294;SDS011;8255;49.560;8.244;2023-04-01T12:50:25;0.43;;;0.43;;
16294;SDS011;8255;49.560;8.244;2023-04-01T12:52:57;0.40;;;0.40;;
16294;SDS011;8255;49.560;8.244;2023-04-01T13:03:44;0.40;;;0.40;;
16294;SDS011;8255;49.560;8.244;2023-04-01T13:06:19;0.63;;;0.60;;
16294;SDS011;8255;49.560;8.244;2023-04-01T13:08:51;0.50;;;0.43;;
16294;SDS011;8255;49.560;8.244;2023-04-01T13:11:20;0.68;;;0.40;;
16294;SDS011;8255;49.560;8.244;2023-04-01T13:14:01;0.47;;;0.47;;
16294;SDS011;8255;49.560;8.244;2023-04-01T13:16:35;0.50;;;0.50;;
16294;SDS011;8255;49.560;8.244;2023-04-01T13:19:04;0.40;;;0.40;;
16294;SDS011;8255;49.560;8.244;2023-04-01T13:21:43;0.60;;;0.60;;
16294;SDS011;8255;49.560;8.244;2023-04-01T13:24:22;0.88;;;0.45;;
16294;SDS011;8255;49.560;8.244;2023-04-01T13:26:53;0.73;;;0.73;;
16294;SDS011;8255;49.560;8.244;2023-04-01T13:29:21;1.02;;;1.02;;
16294;SDS011;8255;49.560;8.244;2023-04-01T13:31:59;2.00;;;1.00;;
16294;SDS011;8255;49.560;8.244;2023-04-01T13:34:35;1.30;;;0.70;;
16294;SDS011;8255;49.560;8.244;2023-04-01T13:37:08;0.50;;;0.50;;
16294;SDS011;8255;49.560;8.244;2023-04-01T13:42:24;0.63;;;0.60;;
16294;SDS011;8255;49.560;8.244;2023-04-01T13:44:54;0.50;;;0.50;;
16294;SDS011;8255;49.560;8.244;2023-04-01T13:47:32;0.60;;;0.60;;
16294;SDS011;8255;49.560;8.244;2023-04-01T13:50:17;0.55;;;0.55;;
16294;SDS011;8255;49.560;8.244;2023-04-01T13:52:52;1.17;;;0.63;;
16294;SDS011;8255;49.560;8.244;2023-04-01T13:55:35;0.60;;;0.60;;
16294;SDS011;8255;49.560;8.244;2023-04-01T13:58:22;0.60;;;0.60;;
16294;SDS011;8255;49.560;8.244;2023-04-01T14:00:52;0.60;;;0.60;;
16294;SDS011;8255;49.560;8.244;2023-04-01T14:03:37;0.55;;;0.55;;
16294;SDS011;8255;49.560;8.244;2023-04-01T14:06:16;0.70;;;0.70;;
16294;SDS011;8255;49.560;8.244;2023-04-01T14:08:49;0.95;;;0.95;;
16294;SDS011;8255;49.560;8.244;2023-04-01T14:11:19;0.90;;;0.90;;
16294;SDS011;8255;49.560;8.244;2023-04-01T14:13:56;0.60;;;0.60;;
16294;SDS011;8255;49.560;8.244;2023-04-01T14:16:47;1.27;;;0.50;;
16294;SDS011;8255;49.560;8.244;2023-04-01T14:19:22;0.68;;;0.68;;
16294;SDS011;8255;49.560;8.244;2023-04-01T14:21:55;0.60;;;0.60;;
16294;SDS011;8255;49.560;8.244;2023-04-01T14:24:32;0.55;;;0.55;;
16294;SDS011;8255;49.560;8.244;2023-04-01T14:27:20;0.80;;;0.80;;
16294;SDS011;8255;49.560;8.244;2023-04-01T14:29:55;1.27;;;0.82;;
16294;SDS011;8255;49.560;8.244;2023-04-01T14:32:25;0.60;;;0.60;;
16294;SDS011;8255;49.560;8.244;2023-04-01T14:34:55;0.50;;;0.50;;
16294;SDS011;8255;49.560;8.244;2023-04-01T14:37:30;1.15;;;0.90;;
16294;SDS011;8255;49.560;8.244;2023-04-01T14:42:53;0.60;;;0.60;;
16294;SDS011;8255;49.560;8.244;2023-04-01T14:45:36;0.90;;;0.90;;
16294;SDS011;8255;49.560;8.244;2023-04-01T14:48:07;1.35;;;1.23;;
16294;SDS011;8255;49.560;8.244;2023-04-01T14:50:41;2.83;;;1.10;;
16294;SDS011;8255;49.560;8.244;2023-04-01T14:53:11;0.70;;;0.70;;
16294;SDS011;8255;49.560;8.244;2023-04-01T14:55:44;0.60;;;0.60;;
16294;SDS011;8255;49.560;8.244;2023-04-01T14:58:13;0.80;;;0.80;;
16294;SDS011;8255;49.560;8.244;2023-04-01T15:00:45;0.75;;;0.63;;
16294;SDS011;8255;49.560;8.244;2023-04-01T15:03:13;0.60;;;0.60;;
16294;SDS011;8255;49.560;8.244;2023-04-01T15:05:45;0.50;;;0.50;;
16294;SDS011;8255;49.560;8.244;2023-04-01T15:08:18;1.98;;;0.60;;
16294;SDS011;8255;49.560;8.244;2023-04-01T15:10:52;0.68;;;0.68;;
16294;SDS011;8255;49.560;8.244;2023-04-01T15:13:21;1.25;;;0.60;;
16294;SDS011;8255;49.560;8.244;2023-04-01T15:15:58;0.50;;;0.50;;
16294;SDS011;8255;49.560;8.244;2023-04-01T15:18:32;0.60;;;0.60;;
16294;SDS011;8255;49.560;8.244;2023-04-01T15:21:04;0.57;;;0.57;;
16294;SDS011;8255;49.560;8.244;2023-04-01T15:23:35;1.30;;;0.80;;
16294;SDS011;8255;49.560;8.244;2023-04-01T15:26:12;0.68;;;0.60;;
16294;SDS011;8255;49.560;8.244;2023-04-01T15:28:40;0.60;;;0.60;;
16294;SDS011;8255;49.560;8.244;2023-04-01T15:31:11;1.38;;;0.50;;
16294;SDS011;8255;49.560;8.244;2023-04-01T15:33:45;0.47;;;0.47;;
16294;SDS011;8255;49.560;8.244;2023-04-01T15:36:17;0.60;;;0.60;;
16294;SDS011;8255;49.560;8.244;2023-04-01T15:38:47;0.60;;;0.60;;
16294;SDS011;8255;49.560;8.244;2023-04-01T15:41:15;2.08;;;1.30;;
16294;SDS011;8255;49.560;8.244;2023-04-01T15:43:42;0.90;;;0.90;;
16294;SDS011;8255;49.560;8.244;2023-04-01T15:46:14;0.73;;;0.73;;
16294;SDS011;8255;49.560;8.244;2023-04-01T15:48:46;0.70;;;0.70;;
16294;SDS011;8255;49.560;8.244;2023-04-01T15:51:19;2.33;;;1.00;;
16294;SDS011;8255;49.560;8.244;2023-04-01T15:53:51;0.68;;;0.60;;
16294;SDS011;8255;49.560;8.244;2023-04-01T15:56:26;1.00;;;0.70;;
16294;SDS011;8255;49.560;8.244;2023-04-01T15:58:56;0.70;;;0.70;;
16294;SDS011;8255;49.560;8.244;2023-04-01T16:01:27;0.68;;;0.68;;
16294;SDS011;8255;49.560;8.244;2023-04-01T16:03:56;1.45;;;0.70;;
16294;SDS011;8255;49.560;8.244;2023-04-01T16:06:35;0.90;;;0.90;;
16294;SDS011;8255;49.560;8.244;2023-04-01T16:09:17;0.60;;;0.60;;
16294;SDS011;8255;49.560;8.244;2023-04-01T16:11:47;0.63;;;0.60;;
16294;SDS011;8255;49.560;8.244;2023-04-01T16:14:23;0.60;;;0.60;;
16294;SDS011;8255;49.560;8.244;2023-04-01T16:17:03;0.43;;;0.43;;
16294;SDS011;8255;49.560;8.244;2023-04-01T16:19:37;0.60;;;0.60;;
16294;SDS011;8255;49.560;8.244;2023-04-01T16:22:05;0.85;;;0.75;;
16294;SDS011;8255;49.560;8.244;2023-04-01T16:24:34;1.05;;;1.00;;
16294;SDS011;8255;49.560;8.244;2023-04-01T16:27:02;2.83;;;2.65;;
16294;SDS011;8255;49.560;8.244;2023-04-01T16:29:32;2.90;;;2.72;;
16294;SDS011;8255;49.560;8.244;2023-04-01T16:32:09;1.80;;;1.70;;
16294;SDS011;8255;49.560;8.244;2023-04-01T16:34:39;1.27;;;1.25;;
16294;SDS011;8255;49.560;8.244;2023-04-01T16:37:08;1.80;;;1.15;;
16294;SDS011;8255;49.560;8.244;2023-04-01T16:39:41;0.50;;;0.50;;
16294;SDS011;8255;49.560;8.244;2023-04-01T16:42:24;0.70;;;0.70;;
16294;SDS011;8255;49.560;8.244;2023-04-01T16:44:53;0.60;;;0.60;;
16294;SDS011;8255;49.560;8.244;2023-04-01T16:47:22;0.47;;;0.47;;
16294;SDS011;8255;49.560;8.244;2023-04-01T16:49:54;0.60;;;0.60;;
16294;SDS011;8255;49.560;8.244;2023-04-01T16:52:32;0.82;;;0.82;;